sensor_id;sensor_type;location;lat;lon;timestamp;P1;durP1;ratioP1;P2;durP2;ratioP2
71360;SDS011;59166;48.908;1.870;2023-05-10T00:04:27;4.43;;;1.30;;
71360;SDS011;59166;48.908;1.870;2023-05-10T00:09:27;5.63;;;1.20;;
71360;SDS011;59166;48.908;1.870;2023-05-10T00:14:30;6.53;;;1.10;;
71360;SDS011;59166;48.908;1.870;2023-05-10T00:19:30;5.43;;;1.48;;
71360;SDS011;59166;48.908;1.870;2023-05-10T00:24:31;6.13;;;1.50;;
71360;SDS011;59166;48.908;1.870;2023-05-10T00:29:34;3.97;;;0.88;;
71360;SDS011;59166;48.908;1.870;2023-05-10T00:34:34;5.30;;;1.30;;
71360;SDS011;59166;48.908;1.870;2023-05-10T00:39:35;5.90;;;1.10;;
71360;SDS011;59166;48.908;1.870;2023-05-10T00:44:37;3.60;;;1.00;;
71360;SDS011;59166;48.908;1.870;2023-05-10T00:49:38;5.20;;;1.10;;
71360;SDS011;59166;48.908;1.870;2023-05-10T00:54:40;6.93;;;1.77;;
71360;SDS011;59166;48.908;1.870;2023-05-10T00:59:43;5.38;;;1.10;;
71360;SDS011;59166;48.908;1.870;2023-05-10T01:04:44;4.78;;;1.30;;
71360;SDS011;59166;48.908;1.870;2023-05-10T01:09:45;6.00;;;1.30;;
71360;SDS011;59166;48.908;1.870;2023-05-10T01:14:48;6.07;;;1.40;;
71360;SDS011;59166;48.908;1.870;2023-05-10T01:19:48;7.50;;;1.80;;
71360;SDS011;59166;48.908;1.870;2023-05-10T01:25:04;9.00;;;1.13;;
71360;SDS011;59166;48.908;1.870;2023-05-10T01:30:40;6.68;;;1.10;;
71360;SDS011;59166;48.908;1.870;2023-05-10T01:35:54;6.40;;;1.25;;
71360;SDS011;59166;48.908;1.870;2023-05-10T01:41:20;6.50;;;1.07;;
71360;SDS011;59166;48.908;1.870;2023-05-10T01:46:28;3.60;;;1.10;;
71360;SDS011;59166;48.908;1.870;2023-05-10T01:51:38;5.32;;;1.30;;
71360;SDS011;59166;48.908;1.870;2023-05-10T01:57:00;7.45;;;1.30;;
71360;SDS011;59166;48.908;1.870;2023-05-10T02:02:03;3.87;;;1.10;;
71360;SDS011;59166;48.908;1.870;2023-05-10T02:07:07;3.72;;;0.90;;
71360;SDS011;59166;48.908;1.870;2023-05-10T02:12:09;5.57;;;0.93;;
71360;SDS011;59166;48.908;1.870;2023-05-10T02:17:13;5.17;;;1.10;;
71360;SDS011;59166;48.908;1.870;2023-05-10T02:22:16;4.43;;;0.90;;
71360;SDS011;59166;48.908;1.870;2023-05-10T02:27:19;5.13;;;0.95;;
71360;SDS011;59166;48.908;1.870;2023-05-10T02:32:20;3.77;;;1.00;;
71360;SDS011;59166;48.908;1.870;2023-05-10T02:37:24;6.67;;;1.30;;
71360;SDS011;59166;48.908;1.870;2023-05-10T02:42:27;4.43;;;1.05;;
71360;SDS011;59166;48.908;1.870;2023-05-10T02:47:29;3.08;;;0.85;;
71360;SDS011;59166;48.908;1.870;2023-05-10T02:52:34;4.33;;;1.20;;
71360;SDS011;59166;48.908;1.870;2023-05-10T02:57:41;5.47;;;1.10;;
71360;SDS011;59166;48.908;1.870;2023-05-10T03:02:47;4.55;;;1.00;;
71360;SDS011;59166;48.908;1.870;2023-05-10T03:07:50;5.47;;;0.87;;
71360;SDS011;59166;48.908;1.870;2023-05-10T03:12:54;5.15;;;1.27;;
71360;SDS011;59166;48.908;1.870;2023-05-10T03:18:15;4.43;;;1.00;;
71360;SDS011;59166;48.908;1.870;2023-05-10T03:23:26;5.10;;;1.33;;
71360;SDS011;59166;48.908;1.870;2023-05-10T03:28:30;3.92;;;1.25;;
71360;SDS011;59166;48.908;1.870;2023-05-10T03:33:34;3.92;;;1.25;;
71360;SDS011;59166;48.908;1.870;2023-05-10T03:38:36;4.20;;;1.07;;
71360;SDS011;59166;48.908;1.870;2023-05-10T03:43:37;4.90;;;1.20;;
71360;SDS011;59166;48.908;1.870;2023-05-10T03:48:38;5.80;;;1.50;;
71360;SDS011;59166;48.908;1.870;2023-05-10T03:53:40;4.38;;;1.33;;
71360;SDS011;59166;48.908;1.870;2023-05-10T03:58:41;5.30;;;1.23;;
71360;SDS011;59166;48.908;1.870;2023-05-10T04:03:41;5.93;;;1.40;;
71360;SDS011;59166;48.908;1.870;2023-05-10T04:08:44;4.17;;;1.40;;
71360;SDS011;59166;48.908;1.870;2023-05-10T04:13:44;7.00;;;1.10;;
71360;SDS011;59166;48.908;1.870;2023-05-10T04:18:45;5.85;;;1.35;;
71360;SDS011;59166;48.908;1.870;2023-05-10T04:23:47;5.20;;;1.50;;
71360;SDS011;59166;48.908;1.870;2023-05-10T04:28:48;5.80;;;1.30;;
71360;SDS011;59166;48.908;1.870;2023-05-10T04:33:49;6.03;;;1.60;;
71360;SDS011;59166;48.908;1.870;2023-05-10T04:38:51;5.65;;;1.50;;
71360;SDS011;59166;48.908;1.870;2023-05-10T04:43:52;5.10;;;1.47;;
71360;SDS011;59166;48.908;1.870;2023-05-10T04:48:53;5.65;;;1.30;;
71360;SDS011;59166;48.908;1.870;2023-05-10T04:53:55;5.70;;;1.40;;
71360;SDS011;59166;48.908;1.870;2023-05-10T04:58:56;6.55;;;1.40;;
71360;SDS011;59166;48.908;1.870;2023-05-10T05:03:56;8.87;;;1.70;;
71360;SDS011;59166;48.908;1.870;2023-05-10T05:08:59;8.23;;;1.88;;
71360;SDS011;59166;48.908;1.870;2023-05-10T05:14:00;6.22;;;1.70;;
71360;SDS011;59166;48.908;1.870;2023-05-10T05:19:00;6.67;;;1.80;;
71360;SDS011;59166;48.908;1.870;2023-05-10T05:24:03;6.55;;;1.70;;
71360;SDS011;59166;48.908;1.870;2023-05-10T05:29:05;7.27;;;1.80;;
71360;SDS011;59166;48.908;1.870;2023-05-10T05:34:05;7.65;;;2.22;;
71360;SDS011;59166;48.908;1.870;2023-05-10T05:39:08;8.83;;;2.03;;
71360;SDS011;59166;48.908;1.870;2023-05-10T05:44:09;9.30;;;1.97;;
71360;SDS011;59166;48.908;1.870;2023-05-10T05:49:09;9.40;;;1.90;;
71360;SDS011;59166;48.908;1.870;2023-05-10T05:54:12;8.60;;;2.10;;
71360;SDS011;59166;48.908;1.870;2023-05-10T05:59:12;6.95;;;1.92;;
71360;SDS011;59166;48.908;1.870;2023-05-10T06:04:13;8.10;;;2.03;;
71360;SDS011;59166;48.908;1.870;2023-05-10T06:09:16;8.20;;;2.00;;
71360;SDS011;59166;48.908;1.870;2023-05-10T06:14:16;7.77;;;2.00;;
71360;SDS011;59166;48.908;1.870;2023-05-10T06:19:17;7.63;;;1.80;;
71360;SDS011;59166;48.908;1.870;2023-05-10T06:24:19;7.50;;;1.70;;
71360;SDS011;59166;48.908;1.870;2023-05-10T06:29:20;7.55;;;2.00;;
71360;SDS011;59166;48.908;1.870;2023-05-10T06:34:21;9.90;;;2.28;;
71360;SDS011;59166;48.908;1.870;2023-05-10T06:39:24;7.23;;;1.80;;
71360;SDS011;59166;48.908;1.870;2023-05-10T06:44:25;7.15;;;1.90;;
71360;SDS011;59166;48.908;1.870;2023-05-10T06:49:26;6.50;;;1.90;;
71360;SDS011;59166;48.908;1.870;2023-05-10T06:54:28;6.32;;;1.90;;
71360;SDS011;59166;48.908;1.870;2023-05-10T06:59:29;8.15;;;1.80;;
71360;SDS011;59166;48.908;1.870;2023-05-10T07:04:30;5.83;;;2.00;;
71360;SDS011;59166;48.908;1.870;2023-05-10T07:09:32;7.15;;;2.45;;
71360;SDS011;59166;48.908;1.870;2023-05-10T07:14:33;7.30;;;2.17;;
71360;SDS011;59166;48.908;1.870;2023-05-10T07:19:34;8.52;;;2.55;;
71360;SDS011;59166;48.908;1.870;2023-05-10T07:24:36;7.60;;;2.20;;
71360;SDS011;59166;48.908;1.870;2023-05-10T07:29:37;9.40;;;2.33;;
71360;SDS011;59166;48.908;1.870;2023-05-10T07:34:38;8.73;;;2.58;;
71360;SDS011;59166;48.908;1.870;2023-05-10T07:39:40;8.23;;;2.10;;
71360;SDS011;59166;48.908;1.870;2023-05-10T07:44:41;10.48;;;2.00;;
71360;SDS011;59166;48.908;1.870;2023-05-10T07:49:41;7.67;;;2.00;;
71360;SDS011;59166;48.908;1.870;2023-05-10T07:54:44;9.63;;;1.95;;
71360;SDS011;59166;48.908;1.870;2023-05-10T07:59:44;8.43;;;1.73;;
71360;SDS011;59166;48.908;1.870;2023-05-10T08:04:45;7.80;;;2.00;;
71360;SDS011;59166;48.908;1.870;2023-05-10T08:09:47;10.03;;;2.47;;
71360;SDS011;59166;48.908;1.870;2023-05-10T08:14:48;11.32;;;2.60;;
71360;SDS011;59166;48.908;1.870;2023-05-10T08:19:49;14.60;;;3.10;;
71360;SDS011;59166;48.908;1.870;2023-05-10T08:24:51;12.40;;;2.80;;
71360;SDS011;59166;48.908;1.870;2023-05-10T08:29:52;14.17;;;2.90;;
71360;SDS011;59166;48.908;1.870;2023-05-10T08:34:53;13.85;;;3.40;;
71360;SDS011;59166;48.908;1.870;2023-05-10T08:39:55;12.37;;;3.17;;
71360;SDS011;59166;48.908;1.870;2023-05-10T08:44:56;14.73;;;3.38;;
71360;SDS011;59166;48.908;1.870;2023-05-10T08:49:57;16.60;;;3.40;;
71360;SDS011;59166;48.908;1.870;2023-05-10T08:55:01;16.50;;;3.80;;
71360;SDS011;59166;48.908;1.870;2023-05-10T09:00:03;19.77;;;3.83;;
71360;SDS011;59166;48.908;1.870;2023-05-10T09:05:05;16.98;;;3.50;;
71360;SDS011;59166;48.908;1.870;2023-05-10T09:10:08;18.70;;;4.03;;
71360;SDS011;59166;48.908;1.870;2023-05-10T09:15:11;13.05;;;3.13;;
71360;SDS011;59166;48.908;1.870;2023-05-10T09:20:12;20.42;;;3.60;;
71360;SDS011;59166;48.908;1.870;2023-05-10T09:25:15;15.10;;;3.70;;
71360;SDS011;59166;48.908;1.870;2023-05-10T09:30:17;16.38;;;3.83;;
71360;SDS011;59166;48.908;1.870;2023-05-10T09:35:24;19.85;;;4.07;;
71360;SDS011;59166;48.908;1.870;2023-05-10T09:40:28;16.07;;;4.30;;
71360;SDS011;59166;48.908;1.870;2023-05-10T09:45:30;14.93;;;3.73;;
71360;SDS011;59166;48.908;1.870;2023-05-10T09:50:31;18.42;;;3.80;;
71360;SDS011;59166;48.908;1.870;2023-05-10T09:55:40;13.23;;;3.47;;
71360;SDS011;59166;48.908;1.870;2023-05-10T10:00:43;15.40;;;3.07;;
71360;SDS011;59166;48.908;1.870;2023-05-10T10:05:45;19.90;;;4.05;;
71360;SDS011;59166;48.908;1.870;2023-05-10T10:10:48;14.98;;;3.50;;
71360;SDS011;59166;48.908;1.870;2023-05-10T10:15:49;14.70;;;3.97;;
71360;SDS011;59166;48.908;1.870;2023-05-10T10:20:52;18.65;;;3.60;;
71360;SDS011;59166;48.908;1.870;2023-05-10T10:25:56;17.75;;;3.25;;
71360;SDS011;59166;48.908;1.870;2023-05-10T10:30:57;11.27;;;3.27;;
71360;SDS011;59166;48.908;1.870;2023-05-10T10:36:03;14.75;;;3.17;;
71360;SDS011;59166;48.908;1.870;2023-05-10T10:41:10;13.20;;;4.00;;
71360;SDS011;59166;48.908;1.870;2023-05-10T10:46:26;15.27;;;3.03;;
71360;SDS011;59166;48.908;1.870;2023-05-10T10:51:28;11.83;;;3.13;;
71360;SDS011;59166;48.908;1.870;2023-05-10T10:56:30;13.05;;;3.05;;
71360;SDS011;59166;48.908;1.870;2023-05-10T11:01:32;12.10;;;3.50;;
71360;SDS011;59166;48.908;1.870;2023-05-10T11:06:34;14.77;;;3.33;;
71360;SDS011;59166;48.908;1.870;2023-05-10T11:11:37;13.80;;;3.88;;
71360;SDS011;59166;48.908;1.870;2023-05-10T11:16:49;11.30;;;2.80;;
71360;SDS011;59166;48.908;1.870;2023-05-10T11:27:14;12.30;;;2.60;;
71360;SDS011;59166;48.908;1.870;2023-05-10T11:32:15;10.20;;;2.43;;
71360;SDS011;59166;48.908;1.870;2023-05-10T11:37:17;13.70;;;2.92;;
71360;SDS011;59166;48.908;1.870;2023-05-10T11:42:21;11.55;;;2.78;;
71360;SDS011;59166;48.908;1.870;2023-05-10T11:47:23;14.77;;;3.00;;
71360;SDS011;59166;48.908;1.870;2023-05-10T11:52:24;12.93;;;2.80;;
71360;SDS011;59166;48.908;1.870;2023-05-10T11:57:27;12.10;;;3.13;;
71360;SDS011;59166;48.908;1.870;2023-05-10T12:02:28;11.40;;;2.87;;
71360;SDS011;59166;48.908;1.870;2023-05-10T12:07:29;12.68;;;3.00;;
71360;SDS011;59166;48.908;1.870;2023-05-10T12:12:36;11.50;;;2.80;;
71360;SDS011;59166;48.908;1.870;2023-05-10T12:17:38;11.70;;;2.97;;
71360;SDS011;59166;48.908;1.870;2023-05-10T12:22:39;10.15;;;2.95;;
71360;SDS011;59166;48.908;1.870;2023-05-10T12:27:42;11.33;;;3.07;;
71360;SDS011;59166;48.908;1.870;2023-05-10T12:32:48;11.23;;;2.88;;
71360;SDS011;59166;48.908;1.870;2023-05-10T12:37:50;10.43;;;2.33;;
71360;SDS011;59166;48.908;1.870;2023-05-10T12:42:52;11.83;;;2.90;;
71360;SDS011;59166;48.908;1.870;2023-05-10T12:47:53;12.32;;;3.78;;
71360;SDS011;59166;48.908;1.870;2023-05-10T12:52:54;10.85;;;3.83;;
71360;SDS011;59166;48.908;1.870;2023-05-10T12:57:56;13.80;;;3.67;;
71360;SDS011;59166;48.908;1.870;2023-05-10T13:02:57;15.52;;;4.07;;
71360;SDS011;59166;48.908;1.870;2023-05-10T13:07:58;10.03;;;3.57;;
71360;SDS011;59166;48.908;1.870;2023-05-10T13:13:00;11.82;;;3.13;;
71360;SDS011;59166;48.908;1.870;2023-05-10T13:18:01;9.50;;;2.80;;
71360;SDS011;59166;48.908;1.870;2023-05-10T13:23:02;11.13;;;3.25;;
71360;SDS011;59166;48.908;1.870;2023-05-10T13:28:04;12.77;;;3.53;;
71360;SDS011;59166;48.908;1.870;2023-05-10T13:33:05;12.35;;;3.50;;
71360;SDS011;59166;48.908;1.870;2023-05-10T13:38:06;13.60;;;3.30;;
71360;SDS011;59166;48.908;1.870;2023-05-10T13:43:08;9.82;;;3.22;;
71360;SDS011;59166;48.908;1.870;2023-05-10T13:48:09;9.70;;;3.23;;
71360;SDS011;59166;48.908;1.870;2023-05-10T13:53:09;10.33;;;3.47;;
71360;SDS011;59166;48.908;1.870;2023-05-10T13:58:12;9.67;;;4.07;;
71360;SDS011;59166;48.908;1.870;2023-05-10T14:03:12;14.43;;;4.43;;
71360;SDS011;59166;48.908;1.870;2023-05-10T14:08:13;10.55;;;3.53;;
71360;SDS011;59166;48.908;1.870;2023-05-10T14:13:15;11.27;;;3.73;;
71360;SDS011;59166;48.908;1.870;2023-05-10T14:18:16;12.52;;;3.20;;
71360;SDS011;59166;48.908;1.870;2023-05-10T14:23:17;9.23;;;2.90;;
71360;SDS011;59166;48.908;1.870;2023-05-10T14:28:19;9.82;;;3.00;;
71360;SDS011;59166;48.908;1.870;2023-05-10T14:33:20;9.87;;;3.17;;
71360;SDS011;59166;48.908;1.870;2023-05-10T14:38:21;10.77;;;2.97;;
71360;SDS011;59166;48.908;1.870;2023-05-10T14:43:23;8.20;;;3.07;;
71360;SDS011;59166;48.908;1.870;2023-05-10T14:48:24;9.65;;;2.50;;
71360;SDS011;59166;48.908;1.870;2023-05-10T14:53:25;10.13;;;2.80;;
71360;SDS011;59166;48.908;1.870;2023-05-10T14:58:27;9.35;;;2.95;;
71360;SDS011;59166;48.908;1.870;2023-05-10T15:03:28;8.60;;;2.53;;
71360;SDS011;59166;48.908;1.870;2023-05-10T15:08:29;9.67;;;3.17;;
71360;SDS011;59166;48.908;1.870;2023-05-10T15:13:31;9.98;;;2.80;;
71360;SDS011;59166;48.908;1.870;2023-05-10T15:18:32;11.40;;;3.30;;
71360;SDS011;59166;48.908;1.870;2023-05-10T15:23:32;9.43;;;3.03;;
71360;SDS011;59166;48.908;1.870;2023-05-10T15:28:35;12.70;;;3.97;;
71360;SDS011;59166;48.908;1.870;2023-05-10T15:33:36;10.20;;;3.08;;
71360;SDS011;59166;48.908;1.870;2023-05-10T15:38:37;8.50;;;2.67;;
71360;SDS011;59166;48.908;1.870;2023-05-10T15:43:39;7.55;;;2.35;;
71360;SDS011;59166;48.908;1.870;2023-05-10T15:48:40;9.07;;;2.40;;
71360;SDS011;59166;48.908;1.870;2023-05-10T15:53:41;9.93;;;2.67;;
71360;SDS011;59166;48.908;1.870;2023-05-10T15:58:43;13.63;;;3.20;;
71360;SDS011;59166;48.908;1.870;2023-05-10T16:03:44;9.27;;;2.50;;
71360;SDS011;59166;48.908;1.870;2023-05-10T16:08:45;7.80;;;2.30;;
71360;SDS011;59166;48.908;1.870;2023-05-10T16:13:47;10.50;;;2.08;;
71360;SDS011;59166;48.908;1.870;2023-05-10T16:18:48;8.57;;;2.20;;
71360;SDS011;59166;48.908;1.870;2023-05-10T16:23:48;9.37;;;2.70;;
71360;SDS011;59166;48.908;1.870;2023-05-10T16:28:51;6.63;;;1.97;;
71360;SDS011;59166;48.908;1.870;2023-05-10T16:33:51;9.02;;;2.30;;
71360;SDS011;59166;48.908;1.870;2023-05-10T16:38:52;9.75;;;2.40;;
71360;SDS011;59166;48.908;1.870;2023-05-10T16:43:54;9.03;;;2.30;;
71360;SDS011;59166;48.908;1.870;2023-05-10T16:48:56;9.77;;;2.08;;
71360;SDS011;59166;48.908;1.870;2023-05-10T16:53:56;6.33;;;1.50;;
71360;SDS011;59166;48.908;1.870;2023-05-10T16:58:59;7.10;;;2.00;;
71360;SDS011;59166;48.908;1.870;2023-05-10T17:04:00;7.63;;;2.50;;
71360;SDS011;59166;48.908;1.870;2023-05-10T17:09:00;11.05;;;2.53;;
71360;SDS011;59166;48.908;1.870;2023-05-10T17:14:03;8.23;;;2.40;;
71360;SDS011;59166;48.908;1.870;2023-05-10T17:19:03;8.27;;;2.20;;
71360;SDS011;59166;48.908;1.870;2023-05-10T17:24:04;8.57;;;2.53;;
71360;SDS011;59166;48.908;1.870;2023-05-10T17:29:07;6.43;;;1.50;;
71360;SDS011;59166;48.908;1.870;2023-05-10T17:34:08;7.72;;;1.65;;
71360;SDS011;59166;48.908;1.870;2023-05-10T17:39:09;8.57;;;1.57;;
71360;SDS011;59166;48.908;1.870;2023-05-10T17:44:15;8.95;;;1.40;;
71360;SDS011;59166;48.908;1.870;2023-05-10T17:49:16;5.97;;;1.00;;
71360;SDS011;59166;48.908;1.870;2023-05-10T17:54:16;5.80;;;1.27;;
71360;SDS011;59166;48.908;1.870;2023-05-10T17:59:19;8.05;;;1.70;;
71360;SDS011;59166;48.908;1.870;2023-05-10T18:04:21;7.23;;;1.47;;
71360;SDS011;59166;48.908;1.870;2023-05-10T18:09:22;8.32;;;1.50;;
71360;SDS011;59166;48.908;1.870;2023-05-10T18:14:24;7.72;;;1.42;;
71360;SDS011;59166;48.908;1.870;2023-05-10T18:19:25;8.27;;;1.30;;
71360;SDS011;59166;48.908;1.870;2023-05-10T18:24:26;8.13;;;1.48;;
71360;SDS011;59166;48.908;1.870;2023-05-10T18:29:28;10.60;;;2.00;;
71360;SDS011;59166;48.908;1.870;2023-05-10T18:34:29;9.27;;;2.30;;
71360;SDS011;59166;48.908;1.870;2023-05-10T18:39:30;9.17;;;2.40;;
71360;SDS011;59166;48.908;1.870;2023-05-10T18:44:35;9.25;;;3.25;;
71360;SDS011;59166;48.908;1.870;2023-05-10T18:49:35;12.63;;;5.60;;
71360;SDS011;59166;48.908;1.870;2023-05-10T18:54:36;14.17;;;5.07;;
71360;SDS011;59166;48.908;1.870;2023-05-10T18:59:38;12.23;;;4.60;;
71360;SDS011;59166;48.908;1.870;2023-05-10T19:04:39;7.70;;;2.60;;
71360;SDS011;59166;48.908;1.870;2023-05-10T19:09:40;8.57;;;2.90;;
71360;SDS011;59166;48.908;1.870;2023-05-10T19:14:42;9.60;;;2.53;;
71360;SDS011;59166;48.908;1.870;2023-05-10T19:19:43;7.82;;;2.60;;
71360;SDS011;59166;48.908;1.870;2023-05-10T19:24:44;10.40;;;2.63;;
71360;SDS011;59166;48.908;1.870;2023-05-10T19:29:46;8.43;;;2.38;;
71360;SDS011;59166;48.908;1.870;2023-05-10T19:34:47;7.97;;;2.27;;
71360;SDS011;59166;48.908;1.870;2023-05-10T19:39:47;9.70;;;2.63;;
71360;SDS011;59166;48.908;1.870;2023-05-10T19:44:50;9.03;;;2.43;;
71360;SDS011;59166;48.908;1.870;2023-05-10T19:49:50;10.13;;;2.60;;
71360;SDS011;59166;48.908;1.870;2023-05-10T19:54:51;7.35;;;2.40;;
71360;SDS011;59166;48.908;1.870;2023-05-10T19:59:53;6.97;;;2.60;;
71360;SDS011;59166;48.908;1.870;2023-05-10T20:04:54;8.05;;;2.22;;
71360;SDS011;59166;48.908;1.870;2023-05-10T20:09:55;6.83;;;2.03;;
71360;SDS011;59166;48.908;1.870;2023-05-10T20:14:57;7.20;;;2.25;;
71360;SDS011;59166;48.908;1.870;2023-05-10T20:19:58;8.23;;;2.30;;
71360;SDS011;59166;48.908;1.870;2023-05-10T20:24:59;9.25;;;2.20;;
71360;SDS011;59166;48.908;1.870;2023-05-10T20:30:01;8.80;;;2.20;;
71360;SDS011;59166;48.908;1.870;2023-05-10T20:35:02;9.35;;;2.20;;
71360;SDS011;59166;48.908;1.870;2023-05-10T20:40:04;8.23;;;2.00;;
71360;SDS011;59166;48.908;1.870;2023-05-10T20:45:08;8.17;;;2.23;;
71360;SDS011;59166;48.908;1.870;2023-05-10T20:50:09;10.70;;;2.30;;
71360;SDS011;59166;48.908;1.870;2023-05-10T20:55:15;10.10;;;2.50;;
71360;SDS011;59166;48.908;1.870;2023-05-10T21:00:17;8.60;;;2.23;;
71360;SDS011;59166;48.908;1.870;2023-05-10T21:05:18;9.73;;;2.50;;
71360;SDS011;59166;48.908;1.870;2023-05-10T21:10:19;9.37;;;2.20;;
71360;SDS011;59166;48.908;1.870;2023-05-10T21:15:22;8.18;;;2.13;;
71360;SDS011;59166;48.908;1.870;2023-05-10T21:20:22;7.27;;;2.13;;
71360;SDS011;59166;48.908;1.870;2023-05-10T21:25:23;6.43;;;1.90;;
71360;SDS011;59166;48.908;1.870;2023-05-10T21:30:25;8.20;;;2.00;;
71360;SDS011;59166;48.908;1.870;2023-05-10T21:35:26;8.85;;;2.00;;
71360;SDS011;59166;48.908;1.870;2023-05-10T21:40:28;9.27;;;2.10;;
71360;SDS011;59166;48.908;1.870;2023-05-10T21:45:30;7.87;;;2.00;;
71360;SDS011;59166;48.908;1.870;2023-05-10T21:50:31;11.20;;;2.10;;
71360;SDS011;59166;48.908;1.870;2023-05-10T21:55:32;10.47;;;2.17;;
71360;SDS011;59166;48.908;1.870;2023-05-10T22:00:35;10.88;;;2.08;;
71360;SDS011;59166;48.908;1.870;2023-05-10T22:05:35;6.87;;;2.00;;
71360;SDS011;59166;48.908;1.870;2023-05-10T22:10:36;9.50;;;2.30;;
71360;SDS011;59166;48.908;1.870;2023-05-10T22:15:38;9.63;;;2.00;;
71360;SDS011;59166;48.908;1.870;2023-05-10T22:20:39;6.15;;;1.95;;
71360;SDS011;59166;48.908;1.870;2023-05-10T22:25:40;9.43;;;1.80;;
71360;SDS011;59166;48.908;1.870;2023-05-10T22:30:46;8.80;;;1.90;;
71360;SDS011;59166;48.908;1.870;2023-05-10T22:35:47;9.98;;;2.30;;
71360;SDS011;59166;48.908;1.870;2023-05-10T22:40:48;7.87;;;1.57;;
71360;SDS011;59166;48.908;1.870;2023-05-10T22:45:50;9.17;;;2.13;;
71360;SDS011;59166;48.908;1.870;2023-05-10T22:50:51;7.07;;;1.90;;
71360;SDS011;59166;48.908;1.870;2023-05-10T22:55:52;8.33;;;2.00;;
71360;SDS011;59166;48.908;1.870;2023-05-10T23:00:54;10.70;;;2.10;;
71360;SDS011;59166;48.908;1.870;2023-05-10T23:05:55;9.27;;;2.00;;
71360;SDS011;59166;48.908;1.870;2023-05-10T23:10:56;10.02;;;1.90;;
71360;SDS011;59166;48.908;1.870;2023-05-10T23:16:02;9.20;;;2.10;;
71360;SDS011;59166;48.908;1.870;2023-05-10T23:21:04;8.55;;;1.80;;
71360;SDS011;59166;48.908;1.870;2023-05-10T23:26:05;8.43;;;1.80;;
71360;SDS011;59166;48.908;1.870;2023-05-10T23:31:07;11.05;;;2.10;;
71360;SDS011;59166;48.908;1.870;2023-05-10T23:36:08;8.83;;;2.10;;
71360;SDS011;59166;48.908;1.870;2023-05-10T23:41:09;6.30;;;1.80;;
71360;SDS011;59166;48.908;1.870;2023-05-10T23:46:11;10.20;;;1.77;;
71360;SDS011;59166;48.908;1.870;2023-05-10T23:51:12;8.98;;;1.85;;
71360;SDS011;59166;48.908;1.870;2023-05-10T23:56:12;7.05;;;1.80;;
